Time;durP1;ratioP1;P1;durP2;ratioP2;P2;SDS_P1;SDS_P2;PMS_P1;PMS_P2;Temp;Humidity;BMP_temperature;BMP_pressure;BME280_temperature;BME280_humidity;BME280_pressure;Samples;Min_cycle;Max_cycle;Signal;HPM_P1;HPM_P2
2021/01/02 00:01:09;;;;;;;43.57;34.10;;;4.40;99.90;;;;;;6163317;23;20474;-90
2021/01/02 00:04:13;;;;;;;43.70;34.30;;;4.40;99.90;;;;;;6162822;23;20477;-90
2021/01/02 00:11:36;;;;;;;41.77;32.83;;;4.40;99.90;;;;;;5833347;24;20459;-90
2021/01/02 00:18:47;;;;;;;47.53;39.87;;;4.40;99.90;;;;;;6020487;23;20513;-90
2021/01/02 00:29:11;;;;;;;46.07;38.57;;;4.40;99.90;;;;;;5751918;24;20475;-90
2021/01/02 00:32:32;;;;;;;45.90;36.27;;;4.30;99.90;;;;;;6044020;23;20426;-90
2021/01/02 00:39:17;;;;;;;47.17;37.77;;;4.60;99.90;;;;;;6009376;23;20229;-89
2021/01/02 00:50:13;;;;;;;44.63;35.77;;;4.50;99.90;;;;;;6012936;23;20515;-88
2021/01/02 00:53:51;;;;;;;42.27;32.60;;;4.80;99.90;;;;;;6022566;23;20755;-89
2021/01/02 00:57:08;;;;;;;40.93;35.43;;;4.50;99.90;;;;;;5990080;23;20425;-89
2021/01/02 01:11:37;;;;;;;38.70;32.30;;;4.40;99.90;;;;;;5973652;23;20425;-89
2021/01/02 01:14:14;;;;;;;37.70;33.37;;;4.40;99.90;;;;;;6027598;23;20464;-88
2021/01/02 01:17:18;;;;;;;39.23;31.00;;;4.40;99.90;;;;;;6164014;23;20420;-89
2021/01/02 01:20:01;;;;;;;42.93;33.97;;;4.40;99.90;;;;;;6163155;23;20466;-88
2021/01/02 01:22:47;;;;;;;39.80;30.87;;;4.40;99.90;;;;;;6164195;23;20408;-89
2021/01/02 01:29:31;;;;;;;37.27;32.37;;;4.40;99.90;;;;;;5820723;24;20498;-88
2021/01/02 01:32:20;;;;;;;40.53;33.37;;;4.40;99.90;;;;;;5902500;24;20478;-89
2021/01/02 01:35:12;;;;;;;35.57;30.67;;;4.40;99.90;;;;;;6001627;23;20419;-89
2021/01/02 01:38:02;;;;;;;;;;;;;;;;;;;;;
2021/01/02 01:48:32;;;;;;;34.83;29.23;;;4.40;99.90;;;;;;5726418;24;20458;-88
2021/01/02 01:59:45;;;;;;;34.13;27.60;;;4.40;99.90;;;;;;5966928;23;20509;-88
2021/01/02 02:03:08;;;;;;;39.40;32.70;;;4.40;99.90;;;;;;6075760;23;20414;-88
2021/01/02 02:09:44;;;;;;;38.87;31.97;;;4.40;99.90;;;;;;6072246;23;20473;-88
2021/01/02 02:26:44;;;;;;;34.63;26.60;;;4.40;99.90;;;;;;5868983;24;20470;-88
2021/01/02 02:36:29;;;;;;;34.83;28.27;;;4.40;99.90;;;;;;6108013;23;20410;-88
2021/01/02 02:39:27;;;;;;;34.83;28.40;;;4.40;99.90;;;;;;6115139;23;20972;-88
2021/01/02 02:42:15;;;;;;;36.00;28.40;;;4.40;99.90;;;;;;6074392;23;20414;-88
2021/01/02 03:00:52;;;;;;;32.83;26.73;;;4.30;99.90;;;;;;5962529;23;20449;-87
2021/01/02 03:03:40;;;;;;;33.07;26.57;;;4.30;99.90;;;;;;6158798;23;20737;-88
2021/01/02 03:06:44;;;;;;;37.60;28.60;;;4.30;99.90;;;;;;6134384;23;20913;-88
2021/01/02 03:09:52;;;;;;;36.67;28.23;;;4.30;99.90;;;;;;6164040;23;20531;-88
2021/01/02 03:12:24;;;;;;;39.17;30.03;;;4.30;99.90;;;;;;6076715;23;20739;-88
2021/01/02 03:15:09;;;;;;;35.77;26.73;;;4.30;99.90;;;;;;6162911;23;20881;-88
2021/01/02 03:18:02;;;;;;;35.90;27.60;;;4.20;99.90;;;;;;6162675;23;20446;-88
2021/01/02 03:20:41;;;;;;;39.53;28.07;;;4.20;99.90;;;;;;6162917;23;20535;-88
2021/01/02 03:23:09;;;;;;;37.90;27.93;;;4.10;99.90;;;;;;6163301;23;20427;-88
2021/01/02 03:26:06;;;;;;;38.30;31.77;;;4.10;99.90;;;;;;6198799;23;20446;-88
2021/01/02 03:29:01;;;;;;;39.17;27.23;;;4.20;99.90;;;;;;6163413;23;20438;-88
2021/01/02 03:31:46;;;;;;;41.35;30.90;;;4.30;99.90;;;;;;6161453;23;20422;-88
2021/01/02 03:42:36;;;;;;;40.80;28.03;;;4.20;99.90;;;;;;5882585;24;20433;-88
2021/01/02 03:45:42;;;;;;;39.70;30.50;;;4.40;99.90;;;;;;5964499;23;20429;-88
2021/01/02 03:48:30;;;;;;;45.93;31.50;;;4.20;99.90;;;;;;6045660;23;20536;-88
2021/01/02 03:55:43;;;;;;;;;;;;;;;;;;;;;
2021/01/02 03:58:54;;;;;;;;;;;;;;;;;;;;;
2021/01/02 04:02:19;;;;;;;45.37;33.80;;;4.10;99.90;;;;;;5971202;23;20456;-88
2021/01/02 04:08:39;;;;;;;45.97;35.10;;;4.10;99.90;;;;;;5903717;23;20449;-88
2021/01/02 04:11:07;;;;;;;45.30;34.60;;;4.10;99.90;;;;;;6020804;23;20420;-87
2021/01/02 04:13:39;;;;;;;39.50;31.43;;;4.20;99.90;;;;;;6070285;23;20487;-87
2021/01/02 04:16:13;;;;;;;41.77;33.43;;;4.20;99.90;;;;;;6082838;23;20461;-88
2021/01/02 04:21:59;;;;;;;44.47;34.70;;;4.20;99.90;;;;;;6056610;23;20450;-87
2021/01/02 04:25:14;;;;;;;43.00;34.90;;;4.20;99.90;;;;;;6093805;23;20426;-87
2021/01/02 04:27:56;;;;;;;46.00;36.80;;;4.20;99.90;;;;;;6171921;23;20440;-87
2021/01/02 04:30:28;;;;;;;44.33;33.07;;;4.20;99.90;;;;;;6172321;23;20415;-87
2021/01/02 04:33:28;;;;;;;43.30;36.93;;;4.20;99.90;;;;;;6172516;23;20408;-88
2021/01/02 04:36:14;;;;;;;41.90;31.90;;;4.20;99.90;;;;;;6172400;23;20426;-87
2021/01/02 04:38:48;;;;;;;45.60;34.63;;;4.20;99.90;;;;;;6173024;23;20439;-87
2021/01/02 04:41:24;;;;;;;42.80;33.70;;;4.20;99.90;;;;;;6173383;23;20434;-87
2021/01/02 04:48:33;;;;;;;40.20;34.70;;;4.30;99.90;;;;;;5903421;24;20412;-87
2021/01/02 04:51:31;;;;;;;44.00;37.27;;;4.20;99.90;;;;;;5937221;24;20424;-87
2021/01/02 04:54:07;;;;;;;43.90;34.90;;;4.20;99.90;;;;;;5963202;24;20422;-87
2021/01/02 05:04:56;;;;;;;45.97;36.17;;;4.20;99.90;;;;;;5765627;24;20503;-87
2021/01/02 05:07:39;;;;;;;43.50;36.13;;;4.30;99.90;;;;;;5964697;24;20459;-87
2021/01/02 05:10:11;;;;;;;43.87;36.63;;;4.40;99.90;;;;;;6081701;23;20412;-88
2021/01/02 05:13:08;;;;;;;40.67;31.73;;;4.30;99.90;;;;;;6055172;23;20411;-87
2021/01/02 05:15:42;;;;;;;39.33;31.40;;;4.30;99.90;;;;;;6055550;23;20419;-87
2021/01/02 05:22:24;;;;;;;45.57;35.80;;;4.30;99.90;;;;;;6156546;23;20999;-87
2021/01/02 05:25:12;;;;;;;40.13;31.43;;;4.30;99.90;;;;;;6209507;23;20404;-87
2021/01/02 05:27:48;;;;;;;41.50;33.50;;;4.30;99.90;;;;;;6170867;23;20449;-87
2021/01/02 05:34:31;;;;;;;43.77;34.87;;;4.30;99.90;;;;;;6016080;23;20419;-87
2021/01/02 05:37:03;;;;;;;42.40;33.33;;;4.30;99.90;;;;;;6025428;23;20427;-87
2021/01/02 05:39:39;;;;;;;43.10;33.80;;;4.40;99.90;;;;;;6155518;23;20439;-87
2021/01/02 05:42:13;;;;;;;45.90;35.17;;;4.40;99.90;;;;;;6172997;23;20449;-87
2021/01/02 05:45:04;;;;;;;45.30;35.33;;;4.40;99.90;;;;;;6171804;23;20506;-87
2021/01/02 05:47:33;;;;;;;43.67;33.07;;;4.50;99.90;;;;;;6172157;23;20426;-87
2021/01/02 05:50:08;;;;;;;45.33;35.70;;;4.50;99.90;;;;;;6172729;23;20422;-87
2021/01/02 05:52:49;;;;;;;44.23;33.90;;;4.40;99.90;;;;;;6172095;23;20427;-87
2021/01/02 05:55:32;;;;;;;37.63;31.03;;;4.50;99.90;;;;;;6173330;23;20418;-87
2021/01/02 05:58:25;;;;;;;40.60;32.93;;;4.40;99.90;;;;;;6172031;23;20443;-88
2021/01/02 06:01:13;;;;;;;40.33;31.40;;;4.40;99.90;;;;;;6171826;23;20427;-87
2021/01/02 06:07:30;;;;;;;40.90;32.37;;;4.40;99.90;;;;;;5983279;23;20741;-87
2021/01/02 06:10:04;;;;;;;40.00;32.00;;;4.40;99.90;;;;;;6055024;23;20850;-88
2021/01/02 06:12:42;;;;;;;41.20;30.80;;;4.30;99.90;;;;;;6053833;23;20419;-87
2021/01/02 06:16:00;;;;;;;;;;;;;;;;;;;;;
2021/01/02 06:19:11;;;;;;;39.93;31.97;;;4.40;99.90;;;;;;5959701;24;20526;-88
2021/01/02 06:21:46;;;;;;;37.83;29.33;;;4.30;99.90;;;;;;5940592;24;20453;-88
2021/01/02 06:27:47;;;;;;;38.40;27.27;;;4.40;99.90;;;;;;6039976;23;20426;-87
2021/01/02 06:34:05;;;;;;;37.33;31.07;;;4.40;99.90;;;;;;5991951;23;20414;-87
2021/01/02 06:36:54;;;;;;;40.80;29.90;;;4.40;99.90;;;;;;6054087;23;20544;-87
2021/01/02 06:39:34;;;;;;;40.97;31.20;;;4.40;99.90;;;;;;6172051;23;20444;-87
2021/01/02 06:42:49;;;;;;;38.90;28.00;;;4.40;99.90;;;;;;6171238;23;20446;-87
2021/01/02 06:46:07;;;;;;;35.70;29.20;;;4.40;99.90;;;;;;6172033;23;20415;-88
2021/01/02 06:48:40;;;;;;;38.70;28.77;;;4.40;99.90;;;;;;6170012;23;20446;-87
2021/01/02 06:51:33;;;;;;;37.77;28.97;;;4.40;99.90;;;;;;6170595;23;20871;-87
2021/01/02 06:54:03;;;;;;;42.67;30.93;;;4.40;99.90;;;;;;6169407;23;20929;-87
2021/01/02 07:00:25;;;;;;;38.00;30.83;;;4.40;99.90;;;;;;5998486;23;20456;-87
2021/01/02 07:03:46;;;;;;;39.07;29.97;;;4.40;99.90;;;;;;6081125;23;20524;-88
2021/01/02 07:06:31;;;;;;;38.87;28.47;;;4.40;99.90;;;;;;6082154;23;20512;-87
2021/01/02 07:13:28;;;;;;;35.70;29.13;;;4.50;99.90;;;;;;5862201;24;20505;-87
2021/01/02 07:16:45;;;;;;;34.53;26.70;;;4.40;99.90;;;;;;5952719;23;20486;-87
2021/01/02 07:19:39;;;;;;;35.00;26.63;;;4.40;99.90;;;;;;6080511;23;20578;-88
2021/01/02 07:34:09;;;;;;;;;;;;;;;;;;;;;
2021/01/02 07:40:36;;;;;;;34.00;25.93;;;4.50;99.90;;;;;;6101680;23;20433;-88
2021/01/02 07:43:18;;;;;;;37.57;26.77;;;4.50;99.90;;;;;;6172518;23;20410;-87
2021/01/02 07:46:02;;;;;;;36.10;27.00;;;4.50;99.90;;;;;;6171989;23;20414;-88
2021/01/02 07:49:15;;;;;;;;;;;;;;;;;;;;;
2021/01/02 07:52:08;;;;;;;35.33;27.80;;;4.50;99.90;;;;;;6086776;23;20421;-87
2021/01/02 07:59:39;;;;;;;38.60;30.47;;;4.50;99.90;;;;;;5868953;24;20478;-87
2021/01/02 08:07:05;;;;;;;38.10;31.00;;;4.50;99.90;;;;;;5987751;23;20415;-88
2021/01/02 08:09:47;;;;;;;39.37;29.23;;;4.50;99.90;;;;;;6021004;23;20850;-88
2021/01/02 08:20:16;;;;;;;39.67;30.40;;;4.60;99.90;;;;;;6045192;23;20430;-88
2021/01/02 08:23:09;;;;;;;41.13;30.30;;;4.60;99.90;;;;;;6023929;23;20504;-88
2021/01/02 08:26:08;;;;;;;41.17;30.70;;;4.60;99.90;;;;;;6049788;23;20415;-88
2021/01/02 08:29:12;;;;;;;44.23;33.43;;;4.60;99.90;;;;;;6049305;23;20498;-88
2021/01/02 08:38:56;;;;;;;;;;;;;;;;;;;;;
2021/01/02 08:42:22;;;;;;;;;;;;;;;;;;;;;
2021/01/02 08:48:12;;;;;;;45.17;33.97;;;4.70;99.90;;;;;;6166224;23;20192;-88
2021/01/02 08:50:50;;;;;;;43.23;35.27;;;4.60;99.90;;;;;;6166037;23;20415;-88
2021/01/02 08:53:27;;;;;;;44.50;34.83;;;4.90;99.90;;;;;;6164716;23;20416;-88
2021/01/02 08:55:54;;;;;;;46.30;33.73;;;4.70;99.90;;;;;;6165437;23;20442;-88
2021/01/02 08:59:01;;;;;;;47.30;35.40;;;4.70;99.90;;;;;;6164340;23;20424;-89
2021/01/02 09:01:35;;;;;;;42.33;31.60;;;4.70;99.90;;;;;;6165126;23;20458;-88
2021/01/02 09:04:11;;;;;;;41.23;32.23;;;4.70;99.90;;;;;;6165077;23;20527;-86
2021/01/02 09:06:38;;;;;;;42.33;33.57;;;4.70;99.90;;;;;;6164862;23;20419;-88
2021/01/02 09:09:08;;;;;;;37.63;31.80;;;4.70;99.90;;;;;;6164793;23;20438;-88
2021/01/02 09:11:51;;;;;;;47.33;34.07;;;4.80;99.90;;;;;;6165154;23;20423;-88
2021/01/02 09:14:19;;;;;;;44.40;32.83;;;4.70;99.90;;;;;;6161649;23;20431;-88
2021/01/02 09:16:59;;;;;;;42.70;33.57;;;4.80;99.90;;;;;;6165592;23;20419;-88
2021/01/02 09:19:26;;;;;;;42.57;32.83;;;4.80;99.90;;;;;;6164266;23;20443;-88
2021/01/02 09:21:54;;;;;;;42.97;33.93;;;4.80;99.90;;;;;;6165654;23;20439;-88
2021/01/02 09:24:22;;;;;;;42.67;33.47;;;4.80;99.90;;;;;;6164283;23;20811;-88
2021/01/02 09:26:50;;;;;;;44.00;33.20;;;4.80;99.90;;;;;;6165397;23;20423;-88
2021/01/02 09:29:20;;;;;;;42.87;32.30;;;4.80;99.90;;;;;;6165657;23;20934;-88
2021/01/02 09:31:47;;;;;;;44.23;32.77;;;4.80;99.90;;;;;;6166133;23;20422;-88
2021/01/02 09:34:14;;;;;;;46.80;34.80;;;4.80;99.90;;;;;;6165912;23;20419;-88
2021/01/02 09:36:42;;;;;;;47.33;34.03;;;4.80;99.90;;;;;;6161596;23;20834;-88
2021/01/02 09:39:09;;;;;;;44.90;35.00;;;5.00;99.90;;;;;;6161169;23;20531;-88
2021/01/02 09:41:37;;;;;;;43.40;33.33;;;4.80;99.90;;;;;;6162519;23;20440;-88
2021/01/02 09:44:04;;;;;;;45.37;35.20;;;4.90;99.90;;;;;;6159679;23;20413;-88
2021/01/02 09:46:51;;;;;;;48.00;34.90;;;4.90;99.90;;;;;;6160245;23;20535;-88
2021/01/02 09:49:19;;;;;;;44.97;34.03;;;4.90;99.90;;;;;;6161699;23;20440;-88
2021/01/02 09:51:46;;;;;;;47.93;34.57;;;4.90;99.90;;;;;;6161818;23;20424;-88
2021/01/02 09:54:14;;;;;;;43.13;31.93;;;4.90;99.90;;;;;;6161686;23;20420;-88
2021/01/02 09:56:45;;;;;;;44.53;32.97;;;4.90;99.90;;;;;;6161253;23;20456;-88
2021/01/02 09:59:14;;;;;;;46.90;33.90;;;5.00;99.90;;;;;;6161464;23;20439;-88
2021/01/02 10:01:42;;;;;;;43.20;31.97;;;5.00;99.90;;;;;;6161912;23;20506;-88
2021/01/02 10:04:09;;;;;;;42.40;33.80;;;5.00;99.90;;;;;;6161935;23;20413;-88
2021/01/02 10:06:44;;;;;;;46.77;35.37;;;5.00;99.90;;;;;;6160377;23;20424;-89
2021/01/02 10:09:12;;;;;;;46.97;34.80;;;5.10;99.90;;;;;;6163039;23;20440;-88
2021/01/02 10:11:42;;;;;;;45.07;35.20;;;5.00;99.90;;;;;;6165022;23;20444;-88
2021/01/02 10:14:10;;;;;;;45.30;34.30;;;5.10;99.90;;;;;;6163123;23;20467;-88
2021/01/02 10:16:38;;;;;;;45.60;34.43;;;5.10;99.90;;;;;;6159246;23;20412;-88
2021/01/02 10:19:05;;;;;;;48.90;36.10;;;5.10;99.90;;;;;;6163010;23;20475;-87
2021/01/02 10:21:32;;;;;;;48.63;37.07;;;5.10;99.90;;;;;;6160604;23;20467;-88
2021/01/02 10:23:59;;;;;;;50.60;37.50;;;5.10;99.90;;;;;;6160787;23;20492;-88
2021/01/02 10:26:27;;;;;;;47.87;36.47;;;5.10;99.90;;;;;;6161251;23;20409;-88
2021/01/02 10:28:54;;;;;;;47.07;35.37;;;5.10;99.90;;;;;;6160599;23;20491;-88
2021/01/02 10:31:23;;;;;;;46.47;35.60;;;5.10;99.90;;;;;;6160888;23;20448;-88
2021/01/02 10:33:50;;;;;;;51.83;36.60;;;5.10;99.90;;;;;;6161171;23;20420;-88
2021/01/02 10:36:18;;;;;;;52.20;39.50;;;5.10;99.90;;;;;;6170066;23;20424;-87
2021/01/02 10:38:46;;;;;;;50.97;38.87;;;5.20;99.90;;;;;;6171872;23;20505;-87
2021/01/02 10:41:14;;;;;;;49.97;37.87;;;5.10;99.90;;;;;;6170491;23;20432;-87
2021/01/02 10:43:44;;;;;;;50.40;37.50;;;5.20;99.90;;;;;;6181636;23;20388;-87
2021/01/02 10:46:18;;;;;;;49.83;37.53;;;5.20;99.90;;;;;;6170014;23;20451;-87
2021/01/02 10:48:47;;;;;;;52.57;38.30;;;5.20;99.90;;;;;;6061178;23;20465;-85
2021/01/02 10:51:15;;;;;;;56.07;41.27;;;5.20;99.90;;;;;;6050426;23;20448;-84
2021/01/02 10:53:42;;;;;;;54.50;37.97;;;5.20;99.90;;;;;;6027098;23;20418;-85
2021/01/02 10:56:13;;;;;;;49.53;36.27;;;5.20;99.90;;;;;;6052662;23;20452;-85
2021/01/02 10:58:41;;;;;;;49.87;37.80;;;5.30;99.90;;;;;;6051984;23;20467;-85
2021/01/02 11:01:18;;;;;;;;;;;;;;;;;;;;;
2021/01/02 11:03:47;;;;;;;46.10;34.80;;;5.30;99.90;;;;;;6053425;23;20479;-86
2021/01/02 11:06:22;;;;;;;45.50;35.50;;;5.30;99.90;;;;;;6076914;23;20512;-86
2021/01/02 11:08:50;;;;;;;43.40;32.67;;;5.30;99.90;;;;;;6057500;23;20435;-85
2021/01/02 11:11:21;;;;;;;42.77;34.50;;;5.40;99.90;;;;;;6058348;23;20425;-85
2021/01/02 11:13:51;;;;;;;42.17;33.63;;;5.30;99.90;;;;;;6034883;23;20483;-85
2021/01/02 11:16:19;;;;;;;45.17;35.17;;;5.30;99.90;;;;;;6057302;23;20404;-85
2021/01/02 11:18:48;;;;;;;43.07;33.80;;;5.40;99.90;;;;;;6080273;23;20770;-86
2021/01/02 11:21:15;;;;;;;36.90;32.07;;;5.30;99.90;;;;;;6076531;23;20436;-85
2021/01/02 11:23:48;;;;;;;40.50;31.33;;;5.30;99.90;;;;;;6076252;23;20503;-85
2021/01/02 11:26:17;;;;;;;42.60;31.53;;;5.30;99.90;;;;;;6053260;23;20455;-85
2021/01/02 11:28:49;;;;;;;37.73;30.70;;;5.30;99.90;;;;;;6076789;23;20451;-85
2021/01/02 11:31:28;;;;;;;38.30;30.87;;;5.30;99.90;;;;;;6064291;23;20911;-85
2021/01/02 11:33:57;;;;;;;40.97;32.50;;;5.40;99.90;;;;;;6029019;23;20415;-85
2021/01/02 11:36:26;;;;;;;39.70;32.33;;;5.40;99.90;;;;;;6054300;23;20412;-85
2021/01/02 11:38:56;;;;;;;39.63;31.47;;;5.40;99.90;;;;;;6053488;23;20474;-86
2021/01/02 11:41:35;;;;;;;38.20;30.70;;;5.50;99.90;;;;;;6076496;23;20539;-85
2021/01/02 11:44:05;;;;;;;35.93;28.93;;;5.40;99.90;;;;;;6053106;23;20411;-85
2021/01/02 11:46:35;;;;;;;34.95;29.88;;;5.50;99.90;;;;;;6032203;23;20485;-85
2021/01/02 11:49:11;;;;;;;35.13;28.53;;;5.50;99.90;;;;;;6058649;23;20230;-86
2021/01/02 11:51:42;;;;;;;36.20;28.27;;;5.50;99.90;;;;;;6092055;23;20504;-86
2021/01/02 11:54:11;;;;;;;32.27;27.63;;;5.50;99.90;;;;;;6092516;23;20376;-85
2021/01/02 11:56:38;;;;;;;34.42;29.25;;;5.50;99.90;;;;;;6104628;23;20418;-85
2021/01/02 11:59:08;;;;;;;36.00;28.77;;;5.50;99.90;;;;;;6081677;23;20191;-86
2021/01/02 12:01:44;;;;;;;36.83;30.93;;;5.50;99.90;;;;;;6105863;23;20441;-85
2021/01/02 12:04:15;;;;;;;38.23;30.57;;;5.50;99.90;;;;;;6104759;23;20417;-86
2021/01/02 12:06:42;;;;;;;36.00;29.87;;;5.40;99.90;;;;;;6092956;23;20383;-85
2021/01/02 12:09:15;;;;;;;36.37;29.57;;;5.40;99.90;;;;;;6103337;23;20463;-85
2021/01/02 12:11:44;;;;;;;35.77;28.27;;;5.50;99.90;;;;;;6079598;23;20414;-85
2021/01/02 12:14:18;;;;;;;35.50;29.23;;;5.50;99.90;;;;;;6079547;23;20415;-85
2021/01/02 12:16:48;;;;;;;36.40;29.77;;;5.50;99.90;;;;;;6055819;23;20419;-85
2021/01/02 12:19:20;;;;;;;31.13;26.20;;;5.50;99.90;;;;;;6104550;23;20572;-85
2021/01/02 12:21:52;;;;;;;33.60;28.07;;;5.50;99.90;;;;;;6057338;23;20486;-86
2021/01/02 12:24:20;;;;;;;34.57;28.37;;;5.50;99.90;;;;;;6082002;23;20421;-85
2021/01/02 12:26:53;;;;;;;34.13;29.20;;;5.50;99.90;;;;;;6090668;23;20410;-85
2021/01/02 12:29:24;;;;;;;34.57;27.90;;;5.50;99.90;;;;;;6104013;23;20439;-85
2021/01/02 12:31:57;;;;;;;33.87;28.20;;;5.50;99.90;;;;;;6081765;23;20439;-85
2021/01/02 12:34:33;;;;;;;33.47;27.90;;;5.50;99.90;;;;;;6081134;23;20407;-85
2021/01/02 12:37:04;;;;;;;37.10;30.00;;;5.50;99.90;;;;;;6080330;23;20889;-85
2021/01/02 12:39:38;;;;;;;34.73;29.10;;;5.50;99.90;;;;;;6081312;23;20450;-85
2021/01/02 12:42:06;;;;;;;34.13;27.63;;;5.60;99.90;;;;;;6105737;23;20439;-86
2021/01/02 12:44:39;;;;;;;32.50;27.97;;;5.60;99.90;;;;;;6083074;23;20554;-86
2021/01/02 12:47:33;;;;;;;32.97;28.20;;;5.60;99.90;;;;;;6027910;23;20461;-85
2021/01/02 12:50:33;;;;;;;32.70;29.03;;;5.60;99.90;;;;;;6082271;23;20408;-85
2021/01/02 12:53:09;;;;;;;35.00;28.43;;;5.60;99.90;;;;;;6105690;23;20419;-85
2021/01/02 12:55:43;;;;;;;34.40;28.97;;;5.60;99.90;;;;;;6058390;23;20429;-86
2021/01/02 12:58:12;;;;;;;33.93;28.70;;;5.60;99.90;;;;;;6082435;23;20474;-86
2021/01/02 13:00:45;;;;;;;39.40;31.57;;;5.60;99.90;;;;;;6073720;23;20423;-86
2021/01/02 13:03:13;;;;;;;33.43;28.43;;;5.60;99.90;;;;;;6098454;23;20490;-87
2021/01/02 13:05:44;;;;;;;35.50;28.60;;;5.70;99.90;;;;;;6085755;23;20395;-87
2021/01/02 13:08:14;;;;;;;35.07;27.90;;;5.60;99.90;;;;;;6051192;23;20450;-86
2021/01/02 13:10:43;;;;;;;32.87;26.23;;;5.60;99.90;;;;;;6052324;23;20466;-86
2021/01/02 13:13:13;;;;;;;31.60;26.40;;;5.60;99.90;;;;;;6073704;23;20420;-86
2021/01/02 13:15:40;;;;;;;28.67;25.23;;;5.60;99.90;;;;;;6049976;23;20748;-86
2021/01/02 13:18:08;;;;;;;30.73;26.03;;;5.60;99.90;;;;;;6074119;23;20826;-86
2021/01/02 13:20:40;;;;;;;31.40;25.27;;;5.60;99.90;;;;;;6086808;23;20403;-87
2021/01/02 13:23:08;;;;;;;31.45;28.05;;;5.60;99.90;;;;;;6074389;23;20501;-87
2021/01/02 13:25:46;;;;;;;32.40;27.63;;;5.60;99.90;;;;;;6096685;23;20160;-86
2021/01/02 13:28:24;;;;;;;33.30;27.90;;;5.70;99.90;;;;;;6072484;23;20445;-86
2021/01/02 13:30:51;;;;;;;35.30;27.17;;;5.60;99.90;;;;;;6097272;23;20419;-86
2021/01/02 13:33:22;;;;;;;32.93;26.80;;;5.60;99.90;;;;;;6098256;23;20415;-86
2021/01/02 13:35:50;;;;;;;30.30;24.80;;;5.70;99.90;;;;;;6078306;23;20419;-85
2021/01/02 13:38:26;;;;;;;33.53;27.53;;;5.70;99.90;;;;;;6103197;23;20451;-85
2021/01/02 13:40:59;;;;;;;32.00;25.57;;;5.60;99.90;;;;;;6079909;23;20419;-86
2021/01/02 13:43:27;;;;;;;31.73;26.03;;;5.70;99.90;;;;;;6103213;23;20550;-85
2021/01/02 13:45:57;;;;;;;32.60;29.07;;;5.70;99.90;;;;;;6090552;23;20380;-85
2021/01/02 13:48:25;;;;;;;34.30;29.00;;;5.70;99.90;;;;;;6077872;23;20458;-86
2021/01/02 13:51:02;;;;;;;;;;;;;;;;;;;;;
2021/01/02 13:53:34;;;;;;;30.73;27.40;;;5.70;99.90;;;;;;6098257;23;20928;-86
2021/01/02 13:56:02;;;;;;;31.17;27.40;;;5.70;99.90;;;;;;6052933;23;20439;-85
2021/01/02 13:58:31;;;;;;;33.47;28.60;;;5.70;99.90;;;;;;6102992;23;20443;-86
2021/01/02 14:01:05;;;;;;;32.70;27.53;;;5.70;99.90;;;;;;6090822;23;20466;-85
2021/01/02 14:03:37;;;;;;;34.43;27.43;;;5.70;99.90;;;;;;6054050;23;20430;-86
2021/01/02 14:06:09;;;;;;;32.27;28.33;;;5.70;99.90;;;;;;6089625;23;20865;-86
2021/01/02 14:08:42;;;;;;;31.07;27.60;;;5.70;99.90;;;;;;6100657;23;20479;-86
2021/01/02 14:11:20;;;;;;;30.43;25.83;;;5.70;99.90;;;;;;6077068;23;20478;-86
2021/01/02 14:13:51;;;;;;;30.87;26.37;;;5.70;99.90;;;;;;6099754;23;20426;-85
2021/01/02 14:16:37;;;;;;;29.77;25.93;;;5.70;99.90;;;;;;6077198;23;20495;-85
2021/01/02 14:19:05;;;;;;;29.80;26.63;;;5.60;99.90;;;;;;6100852;23;20441;-86
2021/01/02 14:21:42;;;;;;;32.03;28.53;;;5.70;99.90;;;;;;6077989;23;20454;-86
2021/01/02 14:24:11;;;;;;;32.10;26.80;;;5.70;99.90;;;;;;6077066;23;20478;-86
2021/01/02 14:26:40;;;;;;;30.53;25.73;;;5.60;99.90;;;;;;6088109;23;20407;-86
2021/01/02 14:29:09;;;;;;;32.73;26.63;;;5.60;99.90;;;;;;6052805;23;20498;-86
2021/01/02 14:31:38;;;;;;;29.70;25.90;;;5.60;99.90;;;;;;6076148;23;20758;-85
2021/01/02 14:34:07;;;;;;;31.53;26.43;;;5.60;99.90;;;;;;6088540;23;20380;-86
2021/01/02 14:36:35;;;;;;;31.67;27.00;;;5.60;99.90;;;;;;6087399;23;20414;-85
2021/01/02 14:39:04;;;;;;;33.17;27.43;;;5.60;99.90;;;;;;6075838;23;20439;-86
2021/01/02 14:41:34;;;;;;;28.03;24.73;;;5.60;99.90;;;;;;6076818;23;20415;-86
2021/01/02 14:44:02;;;;;;;34.47;26.90;;;5.60;99.90;;;;;;6076625;23;20411;-85
2021/01/02 14:46:31;;;;;;;28.53;25.60;;;5.60;99.90;;;;;;6100195;23;20414;-86
2021/01/02 14:48:59;;;;;;;29.57;26.10;;;5.60;99.90;;;;;;6076419;23;20989;-85
2021/01/02 14:51:43;;;;;;;31.70;25.20;;;5.60;99.90;;;;;;6077027;23;20470;-85
2021/01/02 14:54:11;;;;;;;31.60;27.57;;;5.60;99.90;;;;;;6079172;23;20419;-85
2021/01/02 14:56:40;;;;;;;30.80;26.63;;;5.60;99.90;;;;;;6074621;23;20423;-85
2021/01/02 14:59:07;;;;;;;33.57;26.27;;;5.60;99.90;;;;;;6074557;23;20442;-85
2021/01/02 15:01:39;;;;;;;31.63;26.80;;;5.60;99.90;;;;;;6049733;23;20490;-86
2021/01/02 15:04:06;;;;;;;34.67;27.27;;;5.60;99.90;;;;;;6048709;23;20425;-86
2021/01/02 15:06:34;;;;;;;34.73;27.03;;;5.70;99.90;;;;;;6098397;23;20235;-86
2021/01/02 15:09:02;;;;;;;35.40;28.80;;;5.70;99.90;;;;;;6049726;23;20471;-85
2021/01/02 15:11:35;;;;;;;36.63;31.00;;;5.70;99.90;;;;;;6099810;23;20449;-85
2021/01/02 15:14:09;;;;;;;37.03;29.30;;;5.60;99.90;;;;;;6053536;23;20205;-85
2021/01/02 15:16:36;;;;;;;34.60;27.77;;;5.60;99.90;;;;;;6075135;23;20408;-85
2021/01/02 15:19:04;;;;;;;35.57;28.30;;;5.60;99.90;;;;;;6098334;23;20997;-85
2021/01/02 15:21:31;;;;;;;33.50;28.20;;;5.60;99.90;;;;;;6074195;23;20427;-86
2021/01/02 15:23:59;;;;;;;34.50;28.00;;;5.60;99.90;;;;;;6074317;23;20909;-85
2021/01/02 15:26:29;;;;;;;33.50;28.23;;;5.60;99.90;;;;;;6051013;23;20415;-85
2021/01/02 15:29:00;;;;;;;40.03;31.20;;;5.60;99.90;;;;;;6076509;23;20435;-85
2021/01/02 15:31:30;;;;;;;37.70;30.83;;;5.60;99.90;;;;;;6082942;23;20390;-86
2021/01/02 15:33:59;;;;;;;33.60;28.50;;;5.50;99.90;;;;;;6075638;23;20802;-85
2021/01/02 15:36:31;;;;;;;31.80;26.10;;;5.50;99.90;;;;;;6055557;23;20427;-85
2021/01/02 15:38:58;;;;;;;32.33;28.30;;;5.50;99.90;;;;;;6087372;23;20535;-86
2021/01/02 15:41:30;;;;;;;30.93;26.40;;;5.50;99.90;;;;;;6096881;23;20419;-86
2021/01/02 15:43:58;;;;;;;32.50;28.50;;;5.50;99.90;;;;;;6097753;23;20403;-85
2021/01/02 15:46:27;;;;;;;33.90;29.90;;;5.60;99.90;;;;;;6084135;23;20414;-86
2021/01/02 15:48:56;;;;;;;32.73;29.17;;;5.50;99.90;;;;;;6050374;23;20449;-85
2021/01/02 15:51:37;;;;;;;34.60;28.80;;;5.50;99.90;;;;;;6073861;23;20801;-86
2021/01/02 15:54:07;;;;;;;32.27;27.17;;;5.50;99.90;;;;;;6098601;23;20419;-85
2021/01/02 15:56:42;;;;;;;32.87;27.23;;;5.50;99.90;;;;;;6099555;23;20426;-84
2021/01/02 15:59:11;;;;;;;33.70;26.90;;;5.50;99.90;;;;;;6098770;23;20446;-85
2021/01/02 16:01:59;;;;;;;30.57;26.67;;;5.50;99.90;;;;;;6101117;23;20423;-86
2021/01/02 16:04:34;;;;;;;32.63;25.40;;;5.50;99.90;;;;;;6054266;23;20418;-86
2021/01/02 16:07:05;;;;;;;31.70;26.80;;;5.50;99.90;;;;;;6079544;23;20757;-85
2021/01/02 16:09:33;;;;;;;32.07;27.17;;;5.50;99.90;;;;;;6101934;23;20435;-86
2021/01/02 16:12:09;;;;;;;34.93;27.97;;;5.50;99.90;;;;;;6105093;23;20419;-85
2021/01/02 16:14:40;;;;;;;34.47;27.50;;;5.50;99.90;;;;;;6103801;23;20429;-85
2021/01/02 16:17:08;;;;;;;33.23;27.10;;;5.40;99.90;;;;;;6100651;23;20408;-85
2021/01/02 16:19:42;;;;;;;33.77;27.67;;;5.40;99.90;;;;;;6088422;23;20422;-85
2021/01/02 16:22:13;;;;;;;36.50;27.87;;;5.40;99.90;;;;;;6077279;23;20439;-85
2021/01/02 16:24:41;;;;;;;36.27;29.47;;;5.40;99.90;;;;;;6102419;23;20419;-85
2021/01/02 16:27:17;;;;;;;36.47;30.10;;;5.40;99.90;;;;;;6053897;23;20427;-85
2021/01/02 16:29:47;;;;;;;36.13;30.30;;;5.50;99.90;;;;;;6101399;23;20461;-85
2021/01/02 16:32:25;;;;;;;34.83;27.87;;;5.40;99.90;;;;;;6076665;23;20422;-85
2021/01/02 16:34:54;;;;;;;36.93;29.10;;;5.40;99.90;;;;;;6076648;23;20437;-85
2021/01/02 16:37:23;;;;;;;38.88;29.52;;;5.40;99.90;;;;;;6098435;23;20436;-85
2021/01/02 16:39:54;;;;;;;35.00;29.07;;;5.50;99.90;;;;;;6080215;23;20201;-85
2021/01/02 16:42:24;;;;;;;36.10;29.30;;;5.50;99.90;;;;;;6099280;23;20725;-85
2021/01/02 16:44:55;;;;;;;35.00;27.37;;;5.40;99.90;;;;;;6052387;23;20419;-85
2021/01/02 16:47:25;;;;;;;33.33;27.57;;;5.50;99.90;;;;;;6101051;23;20442;-85
2021/01/02 16:49:57;;;;;;;42.03;30.77;;;5.50;99.90;;;;;;6099994;23;20435;-85
2021/01/02 16:52:28;;;;;;;47.40;36.50;;;5.40;99.90;;;;;;6077520;23;20447;-85
2021/01/02 16:55:08;;;;;;;39.63;34.37;;;5.40;99.90;;;;;;6077958;23;20434;-85
2021/01/02 16:57:38;;;;;;;38.23;30.60;;;5.40;99.90;;;;;;6077240;23;20453;-85
2021/01/02 17:00:08;;;;;;;40.63;32.27;;;5.50;99.90;;;;;;6077223;23;20427;-86
2021/01/02 17:02:36;;;;;;;40.63;31.43;;;5.40;99.90;;;;;;6051929;23;20538;-86
2021/01/02 17:05:07;;;;;;;38.03;30.13;;;5.40;99.90;;;;;;6101939;23;20510;-86